createdAt,value
2022-12-17T00:02:16.903Z,3.22
2022-12-17T00:05:02.374Z,3.26
2022-12-17T00:07:47.602Z,3.22
2022-12-17T00:10:32.818Z,3.21
2022-12-17T00:13:18.330Z,3.21
2022-12-17T00:16:10.176Z,3.19
2022-12-17T00:18:55.267Z,3.19
2022-12-17T00:21:41.575Z,3.18
2022-12-17T00:24:27.101Z,3.17
2022-12-17T00:27:12.312Z,3.17
2022-12-17T00:29:57.481Z,3.12
2022-12-17T00:32:42.626Z,3.13
2022-12-17T00:35:28.019Z,3.12
2022-12-17T00:38:17.520Z,3.10
2022-12-17T00:41:02.936Z,3.09
2022-12-17T00:43:48.284Z,3.09
2022-12-17T00:46:33.913Z,3.09
2022-12-17T00:49:19.506Z,3.08
2022-12-17T00:52:04.963Z,3.05
2022-12-17T00:54:50.401Z,3.05
2022-12-17T00:57:35.931Z,3.05
2022-12-17T01:00:21.049Z,3.01
2022-12-17T01:03:06.598Z,3.03
2022-12-17T01:05:52.190Z,3.04
2022-12-17T01:08:37.538Z,3.03
2022-12-17T01:11:26.265Z,3.03
2022-12-17T01:14:12.521Z,3.05
2022-12-17T01:16:57.843Z,3.05
2022-12-17T01:19:42.898Z,2.98
2022-12-17T01:22:28.256Z,2.98
2022-12-17T01:25:13.290Z,2.98
2022-12-17T01:27:58.561Z,2.96
2022-12-17T01:30:43.684Z,2.95
2022-12-17T01:33:29.308Z,2.95
2022-12-17T01:36:15.965Z,2.93
2022-12-17T01:39:01.774Z,2.95
2022-12-17T01:41:47.455Z,2.97
2022-12-17T01:45:07.867Z,2.93
2022-12-17T01:48:11.783Z,2.92
2022-12-17T01:51:04.713Z,2.90
2022-12-17T01:53:54.822Z,2.91
2022-12-17T01:56:42.240Z,2.92
2022-12-17T01:59:28.437Z,2.94
2022-12-17T02:02:13.619Z,2.96
2022-12-17T02:04:59.718Z,2.96
2022-12-17T02:08:21.766Z,2.96
2022-12-17T02:11:18.816Z,2.94
2022-12-17T02:14:21.179Z,2.96
2022-12-17T02:17:17.229Z,2.95
2022-12-17T02:20:46.984Z,2.95
2022-12-17T02:24:00.752Z,2.92
2022-12-17T02:27:02.485Z,2.91
2022-12-17T02:29:56.801Z,2.92
2022-12-17T02:32:43.759Z,2.94
2022-12-17T02:35:38.071Z,2.93
2022-12-17T02:38:46.387Z,2.89
2022-12-17T02:41:43.723Z,2.87
2022-12-17T02:44:31.175Z,2.90
2022-12-17T02:47:18.119Z,2.87
2022-12-17T02:50:03.807Z,2.84
2022-12-17T02:52:52.359Z,2.82
2022-12-17T02:55:37.962Z,2.81
2022-12-17T02:58:23.114Z,2.81
2022-12-17T03:01:08.178Z,2.86
2022-12-17T03:03:53.656Z,2.86
2022-12-17T03:06:38.886Z,2.89
2022-12-17T03:09:23.957Z,2.86
2022-12-17T03:12:09.453Z,2.87
2022-12-17T03:14:54.753Z,2.85
2022-12-17T03:17:40.010Z,2.82
2022-12-17T03:20:26.082Z,2.84
2022-12-17T03:23:11.499Z,2.82
2022-12-17T03:25:56.513Z,2.84
2022-12-17T03:28:41.933Z,2.79
2022-12-17T03:31:27.427Z,2.84
2022-12-17T03:34:12.701Z,2.78
2022-12-17T03:37:17.161Z,2.78
2022-12-17T03:40:02.303Z,2.77
2022-12-17T03:42:47.620Z,2.78
2022-12-17T03:45:32.899Z,2.76
2022-12-17T03:48:27.519Z,2.75
2022-12-17T03:51:13.531Z,2.73
2022-12-17T03:53:59.524Z,2.77
2022-12-17T03:56:45.098Z,2.72
2022-12-17T03:59:30.464Z,2.77
2022-12-17T04:02:16.970Z,2.73
2022-12-17T04:05:02.838Z,2.73
2022-12-17T04:07:48.310Z,2.75
2022-12-17T04:10:33.657Z,2.72
2022-12-17T04:13:18.674Z,2.76
2022-12-17T04:16:04.185Z,2.74
2022-12-17T04:18:50.030Z,2.72
2022-12-17T04:21:35.477Z,2.71
2022-12-17T04:24:20.800Z,2.73
2022-12-17T04:27:06.093Z,2.78
2022-12-17T04:29:51.235Z,2.74
2022-12-17T04:32:36.440Z,2.77
2022-12-17T04:35:22.211Z,2.73
2022-12-17T04:38:07.475Z,2.71
2022-12-17T04:40:52.763Z,2.73
2022-12-17T04:43:38.746Z,2.71
2022-12-17T04:46:24.723Z,2.72
2022-12-17T04:49:10.010Z,2.69
2022-12-17T04:51:55.065Z,2.69
2022-12-17T04:54:40.286Z,2.68
2022-12-17T04:57:25.704Z,2.69
2022-12-17T05:00:11.006Z,2.65
2022-12-17T05:02:56.374Z,2.63
2022-12-17T05:05:41.963Z,2.65
2022-12-17T05:08:27.064Z,2.68
2022-12-17T05:11:12.304Z,2.67
2022-12-17T05:13:57.550Z,2.58
2022-12-17T05:16:42.755Z,2.65
2022-12-17T05:19:28.135Z,2.70
2022-12-17T05:22:13.211Z,2.70
2022-12-17T05:24:58.314Z,2.71
2022-12-17T05:27:43.305Z,2.71
2022-12-17T05:30:29.001Z,2.68
2022-12-17T05:33:22.251Z,2.68
2022-12-17T05:36:08.357Z,2.63
2022-12-17T05:38:53.387Z,2.64
2022-12-17T05:41:38.495Z,2.58
2022-12-17T05:44:23.796Z,2.61
2022-12-17T05:47:09.236Z,2.63
2022-12-17T05:49:54.469Z,2.61
2022-12-17T05:52:41.960Z,2.65
2022-12-17T05:55:27.783Z,2.71
2022-12-17T05:58:21.890Z,2.73
2022-12-17T06:01:07.429Z,2.70
2022-12-17T06:03:53.270Z,2.63
2022-12-17T06:06:38.481Z,2.67
2022-12-17T06:09:23.676Z,2.63
2022-12-17T06:12:09.017Z,2.57
2022-12-17T06:14:54.235Z,2.58
2022-12-17T06:17:39.562Z,2.59
2022-12-17T06:20:25.355Z,2.58
2022-12-17T06:23:20.646Z,2.61
2022-12-17T06:26:06.288Z,2.59
2022-12-17T06:28:51.949Z,2.53
2022-12-17T06:31:37.279Z,2.58
2022-12-17T06:34:22.695Z,2.65
2022-12-17T06:37:08.014Z,2.56
2022-12-17T06:39:53.248Z,2.58
2022-12-17T06:42:38.460Z,2.56
2022-12-17T06:45:42.990Z,2.57
2022-12-17T06:48:28.463Z,2.53
2022-12-17T06:51:14.409Z,2.62
2022-12-17T06:54:00.541Z,2.62
2022-12-17T06:56:46.743Z,2.64
2022-12-17T06:59:31.890Z,2.65
2022-12-17T07:02:17.307Z,2.67
2022-12-17T07:05:02.840Z,2.65
2022-12-17T07:07:48.311Z,2.66
2022-12-17T07:10:34.056Z,2.65
2022-12-17T07:13:24.537Z,2.65
2022-12-17T07:16:10.779Z,2.68
2022-12-17T07:18:56.269Z,2.69
2022-12-17T07:21:41.975Z,2.65
2022-12-17T07:24:27.589Z,2.64
2022-12-17T07:27:13.409Z,2.63
2022-12-17T07:29:58.604Z,2.62
2022-12-17T07:32:43.716Z,2.68
2022-12-17T07:35:29.166Z,2.71
2022-12-17T07:38:18.131Z,2.71
2022-12-17T07:41:03.969Z,2.70
2022-12-17T07:43:52.973Z,2.70
2022-12-17T07:46:38.915Z,2.72
2022-12-17T07:49:26.147Z,2.73
2022-12-17T07:52:11.886Z,2.76
2022-12-17T07:54:57.564Z,2.73
2022-12-17T07:57:43.297Z,2.74
2022-12-17T08:00:29.510Z,2.80
2022-12-17T08:03:16.742Z,2.83
2022-12-17T08:06:02.242Z,2.87
2022-12-17T08:08:47.387Z,2.88
2022-12-17T08:11:32.777Z,2.91
2022-12-17T08:14:18.221Z,2.92
2022-12-17T08:17:03.588Z,2.90
2022-12-17T08:20:08.784Z,2.90
2022-12-17T08:22:54.444Z,2.92
2022-12-17T08:25:40.065Z,2.89
2022-12-17T08:28:49.436Z,2.91
2022-12-17T08:31:32.405Z,2.92
2022-12-17T08:34:18.142Z,2.90
2022-12-17T08:37:03.463Z,2.91
2022-12-17T08:39:48.637Z,2.92
2022-12-17T08:42:34.166Z,2.94
2022-12-17T08:45:19.868Z,2.94
2022-12-17T08:48:05.577Z,2.92
2022-12-17T08:50:51.014Z,2.92
2022-12-17T08:53:37.005Z,2.92
2022-12-17T08:56:22.946Z,2.95
2022-12-17T08:59:08.108Z,2.95
2022-12-17T09:01:53.383Z,2.92
2022-12-17T09:04:38.494Z,2.92
2022-12-17T09:07:23.572Z,2.93
2022-12-17T09:10:08.980Z,2.93
2022-12-17T09:12:54.357Z,2.93
2022-12-17T09:15:39.535Z,2.90
2022-12-17T09:18:24.925Z,2.91
2022-12-17T09:21:12.209Z,2.96
2022-12-17T09:23:57.840Z,2.93
2022-12-17T09:27:03.444Z,2.97
2022-12-17T09:29:48.789Z,2.96
2022-12-17T09:32:34.291Z,2.93
2022-12-17T09:35:19.939Z,2.98
2022-12-17T09:38:11.605Z,2.97
2022-12-17T09:40:59.432Z,2.89
2022-12-17T09:44:06.417Z,2.89
2022-12-17T09:46:59.636Z,2.92
2022-12-17T09:49:47.751Z,2.91
2022-12-17T09:52:46.873Z,2.91
2022-12-17T09:56:06.009Z,2.92
2022-12-17T09:58:55.620Z,2.91
2022-12-17T10:01:47.229Z,2.87
2022-12-17T10:04:41.324Z,2.94
2022-12-17T10:07:37.272Z,2.93
2022-12-17T10:10:43.848Z,2.83
2022-12-17T10:13:35.810Z,2.84
2022-12-17T10:16:22.048Z,2.87
2022-12-17T10:19:08.470Z,2.87
2022-12-17T10:21:57.256Z,2.83
2022-12-17T10:24:42.625Z,2.84
2022-12-17T10:27:29.668Z,2.87
2022-12-17T10:30:14.872Z,2.88
2022-12-17T10:33:00.562Z,2.85
2022-12-17T10:35:54.692Z,2.87
2022-12-17T10:38:46.302Z,2.90
2022-12-17T10:41:42.223Z,2.91
2022-12-17T10:44:39.651Z,2.98
2022-12-17T10:47:30.426Z,3.04
2022-12-17T10:50:28.423Z,3.05
2022-12-17T10:53:14.124Z,3.09
2022-12-17T10:56:11.873Z,3.07
2022-12-17T10:59:04.621Z,3.08
2022-12-17T11:01:50.972Z,3.08
2022-12-17T11:04:47.240Z,3.10
2022-12-17T11:07:56.208Z,3.13
2022-12-17T11:10:43.784Z,3.17
2022-12-17T11:13:48.153Z,3.19
2022-12-17T11:16:46.440Z,3.19
2022-12-17T11:19:31.663Z,3.20
2022-12-17T11:22:24.733Z,3.24
2022-12-17T11:25:21.900Z,3.27
2022-12-17T11:28:16.657Z,3.29
2022-12-17T11:31:29.828Z,3.32
2022-12-17T11:34:24.955Z,3.33
2022-12-17T11:37:34.322Z,3.34
2022-12-17T11:40:44.614Z,3.30
2022-12-17T11:43:44.296Z,3.29
2022-12-17T11:46:45.184Z,3.31
2022-12-17T11:49:41.200Z,3.31
2022-12-17T11:53:03.048Z,3.34
2022-12-17T11:56:03.562Z,3.36
2022-12-17T11:58:57.495Z,3.37
2022-12-17T12:02:05.569Z,3.40
2022-12-17T12:05:01.293Z,3.44
2022-12-17T12:08:13.354Z,3.45
2022-12-17T12:11:13.837Z,3.51
2022-12-17T12:14:09.644Z,3.52
2022-12-17T12:17:04.151Z,3.54
2022-12-17T12:19:56.362Z,3.61
2022-12-17T12:23:02.326Z,3.63
2022-12-17T12:26:08.437Z,3.63
2022-12-17T12:29:13.136Z,3.61
2022-12-17T12:32:08.686Z,3.63
2022-12-17T12:34:57.018Z,3.60
2022-12-17T12:37:42.857Z,3.61
2022-12-17T12:40:50.761Z,3.61
2022-12-17T12:43:48.729Z,3.56
2022-12-17T12:46:36.472Z,3.55
2022-12-17T12:49:21.709Z,3.49
2022-12-17T12:52:10.158Z,3.47
2022-12-17T12:55:05.348Z,3.42
2022-12-17T12:58:14.557Z,3.44
2022-12-17T13:01:06.127Z,3.46
2022-12-17T13:03:55.569Z,3.41
2022-12-17T13:06:46.589Z,3.41
2022-12-17T13:09:16.239Z,3.37
2022-12-17T13:11:48.984Z,3.36
2022-12-17T13:14:20.161Z,3.33
2022-12-17T13:16:46.850Z,3.33
2022-12-17T13:19:36.602Z,3.34
2022-12-17T13:22:10.404Z,3.38
2022-12-17T13:24:37.632Z,3.39
2022-12-17T13:27:05.337Z,3.37
2022-12-17T13:29:37.741Z,3.41
2022-12-17T13:32:32.613Z,3.41
2022-12-17T13:35:23.434Z,3.38
2022-12-17T13:38:15.081Z,3.41
2022-12-17T13:41:06.560Z,3.36
2022-12-17T13:43:45.056Z,3.39
2022-12-17T13:46:23.788Z,3.38
2022-12-17T13:48:59.251Z,3.38
2022-12-17T13:51:29.001Z,3.38
2022-12-17T13:53:58.564Z,3.39
2022-12-17T13:56:32.452Z,3.43
2022-12-17T13:59:07.972Z,3.42
2022-12-17T14:01:45.637Z,3.40
2022-12-17T14:04:29.685Z,3.42
2022-12-17T14:06:59.809Z,3.45
2022-12-17T14:09:35.589Z,3.43
2022-12-17T14:12:24.004Z,3.43
2022-12-17T14:14:56.152Z,3.45
2022-12-17T14:17:26.209Z,3.43
2022-12-17T14:19:59.648Z,3.45
2022-12-17T14:22:33.638Z,3.43
2022-12-17T14:25:01.500Z,3.44
2022-12-17T14:27:36.053Z,3.43
2022-12-17T14:30:21.035Z,3.44
2022-12-17T14:32:48.880Z,3.44
2022-12-17T14:35:30.378Z,3.43
2022-12-17T14:37:57.874Z,3.48
2022-12-17T14:40:26.275Z,3.51
2022-12-17T14:42:59.154Z,3.48
2022-12-17T14:45:28.018Z,3.51
2022-12-17T14:48:00.172Z,3.44
2022-12-17T14:50:37.442Z,3.43
2022-12-17T14:53:25.582Z,3.38
2022-12-17T14:55:57.347Z,3.36
2022-12-17T14:58:25.826Z,3.34
2022-12-17T15:01:04.717Z,3.31
2022-12-17T15:03:34.236Z,3.28
2022-12-17T15:06:03.276Z,3.25
2022-12-17T15:08:34.099Z,3.17
2022-12-17T15:11:01.498Z,3.16
2022-12-17T15:13:28.577Z,3.10
2022-12-17T15:15:55.342Z,3.08
2022-12-17T15:18:24.735Z,3.06
2022-12-17T15:20:51.494Z,3.04
2022-12-17T15:23:20.258Z,3.03
2022-12-17T15:25:48.855Z,2.99
2022-12-17T15:28:17.132Z,2.92
2022-12-17T15:30:44.690Z,2.88
2022-12-17T15:33:12.328Z,2.81
2022-12-17T15:35:39.468Z,2.82
2022-12-17T15:38:07.515Z,2.79
2022-12-17T15:40:37.459Z,2.74
2022-12-17T15:43:13.819Z,2.72
2022-12-17T15:45:44.245Z,2.73
2022-12-17T15:48:12.954Z,2.65
2022-12-17T15:50:40.692Z,2.62
2022-12-17T15:53:09.156Z,2.60
2022-12-17T15:55:36.763Z,2.57
2022-12-17T15:58:04.759Z,2.53
2022-12-17T16:00:32.378Z,2.49
2022-12-17T16:02:59.473Z,2.47
2022-12-17T16:05:26.545Z,2.44
2022-12-17T16:07:53.479Z,2.43
2022-12-17T16:10:20.738Z,2.38
2022-12-17T16:12:47.594Z,2.36
2022-12-17T16:15:14.701Z,2.33
2022-12-17T16:17:41.595Z,2.35
2022-12-17T16:20:09.134Z,2.31
2022-12-17T16:22:36.897Z,2.31
2022-12-17T16:25:05.061Z,2.33
2022-12-17T16:27:32.318Z,2.34
2022-12-17T16:29:59.276Z,2.30
2022-12-17T16:32:29.279Z,2.31
2022-12-17T16:35:00.230Z,2.26
2022-12-17T16:37:27.313Z,2.22
2022-12-17T16:39:59.727Z,2.18
2022-12-17T16:42:27.384Z,2.19
2022-12-17T16:44:54.274Z,2.13
2022-12-17T16:47:21.535Z,2.13
2022-12-17T16:49:50.692Z,2.10
2022-12-17T16:52:17.489Z,2.03
2022-12-17T16:54:44.575Z,1.97
2022-12-17T16:57:11.321Z,2.00
2022-12-17T16:59:38.149Z,1.94
2022-12-17T17:02:05.105Z,1.92
2022-12-17T17:04:32.278Z,1.88
2022-12-17T17:06:59.178Z,1.87
2022-12-17T17:09:26.258Z,1.84
2022-12-17T17:11:56.977Z,1.82
2022-12-17T17:14:24.090Z,1.79
2022-12-17T17:16:51.700Z,1.74
2022-12-17T17:19:19.782Z,1.73
2022-12-17T17:21:52.660Z,1.73
2022-12-17T17:24:22.266Z,1.72
2022-12-17T17:26:51.516Z,1.69
2022-12-17T17:29:18.683Z,1.68
2022-12-17T17:32:09.123Z,1.68
2022-12-17T17:34:32.749Z,1.68
2022-12-17T17:36:59.971Z,1.61
2022-12-17T17:39:27.368Z,1.54
2022-12-17T17:41:54.226Z,1.57
2022-12-17T17:44:20.992Z,1.59
2022-12-17T17:46:48.292Z,1.60
2022-12-17T17:49:15.666Z,1.55
2022-12-17T17:54:30.940Z,1.51
2022-12-17T17:56:57.870Z,1.44
2022-12-17T17:59:31.123Z,1.49
2022-12-17T18:02:01.388Z,1.44
2022-12-17T18:04:28.444Z,1.47
2022-12-17T18:09:42.197Z,1.45
2022-12-17T18:12:27.919Z,1.40
2022-12-17T18:15:13.579Z,1.36
2022-12-17T18:17:41.001Z,1.38
2022-12-17T18:20:09.821Z,1.38
2022-12-17T18:22:37.065Z,1.37
2022-12-17T18:25:05.135Z,1.37
2022-12-17T18:27:32.305Z,1.36
2022-12-17T18:29:59.163Z,1.33
2022-12-17T18:32:25.933Z,1.28
2022-12-17T18:34:52.750Z,1.23
2022-12-17T18:37:20.152Z,1.28
2022-12-17T18:39:48.502Z,1.27
2022-12-17T18:42:33.940Z,1.25
2022-12-17T18:45:01.016Z,1.28
2022-12-17T18:47:28.070Z,1.30
2022-12-17T18:49:54.774Z,1.24
2022-12-17T18:52:23.671Z,1.21
2022-12-17T18:54:50.504Z,1.16
2022-12-17T18:57:17.499Z,1.12
2022-12-17T18:59:44.800Z,1.10
2022-12-17T19:02:14.067Z,1.05
2022-12-17T19:04:41.566Z,1.01
2022-12-17T19:07:08.903Z,0.95
2022-12-17T19:09:36.451Z,1.01
2022-12-17T19:12:08.438Z,1.01
2022-12-17T19:14:36.575Z,1.00
2022-12-17T19:17:05.214Z,1.05
2022-12-17T19:19:32.737Z,1.06
2022-12-17T19:22:00.456Z,0.99
2022-12-17T19:24:27.867Z,0.99
2022-12-17T19:26:55.207Z,1.00
2022-12-17T19:29:22.126Z,0.99
2022-12-17T19:31:50.345Z,0.99
2022-12-17T19:34:19.543Z,1.03
2022-12-17T19:36:47.138Z,1.08
2022-12-17T19:39:17.274Z,1.05
2022-12-17T19:41:44.695Z,1.03
2022-12-17T19:44:14.179Z,1.06
2022-12-17T19:46:41.158Z,0.98
2022-12-17T19:49:11.170Z,1.02
2022-12-17T19:51:40.442Z,0.92
2022-12-17T19:54:09.126Z,0.88
2022-12-17T19:56:36.746Z,0.89
2022-12-17T19:59:07.281Z,0.86
2022-12-17T20:01:37.371Z,0.86
2022-12-17T20:04:05.117Z,0.81
2022-12-17T20:06:34.081Z,0.83
2022-12-17T20:09:03.362Z,0.86
2022-12-17T20:11:33.109Z,0.83
2022-12-17T20:14:15.185Z,0.81
2022-12-17T20:16:47.874Z,0.81
2022-12-17T20:19:19.771Z,0.73
2022-12-17T20:22:05.874Z,0.74
2022-12-17T20:24:34.329Z,0.75
2022-12-17T20:27:01.382Z,0.72
2022-12-17T20:29:28.932Z,0.69
2022-12-17T20:31:56.211Z,0.67
2022-12-17T20:34:24.521Z,0.65
2022-12-17T20:36:52.477Z,0.61
2022-12-17T20:39:25.895Z,0.64
2022-12-17T20:41:53.479Z,0.58
2022-12-17T20:44:20.496Z,0.62
2022-12-17T20:46:47.602Z,0.60
2022-12-17T20:49:15.143Z,0.57
2022-12-17T20:51:42.201Z,0.58
2022-12-17T20:54:10.803Z,0.56
2022-12-17T20:56:39.003Z,0.56
2022-12-17T20:59:08.769Z,0.64
2022-12-17T21:01:37.020Z,0.52
2022-12-17T21:04:06.448Z,0.58
2022-12-17T21:06:39.304Z,0.59
2022-12-17T21:09:07.366Z,0.58
2022-12-17T21:11:35.552Z,0.49
2022-12-17T21:14:08.295Z,0.50
2022-12-17T21:16:36.622Z,0.54
2022-12-17T21:19:06.025Z,0.53
2022-12-17T21:21:37.132Z,0.52
2022-12-17T21:24:04.660Z,0.56
2022-12-17T21:26:35.618Z,0.54
2022-12-17T21:29:05.363Z,0.53
2022-12-17T21:31:39.071Z,0.47
2022-12-17T21:34:07.551Z,0.50
2022-12-17T21:36:35.030Z,0.46
2022-12-17T21:39:03.917Z,0.44
2022-12-17T21:41:38.840Z,0.42
2022-12-17T21:44:09.157Z,0.44
2022-12-17T21:46:36.174Z,0.48
2022-12-17T21:49:04.718Z,0.50
2022-12-17T21:51:32.698Z,0.51
2022-12-17T21:54:08.764Z,0.48
2022-12-17T21:56:36.372Z,0.46
2022-12-17T21:59:03.348Z,0.47
2022-12-17T22:01:34.680Z,0.49
2022-12-17T22:04:03.379Z,0.49
2022-12-17T22:06:34.227Z,0.47
2022-12-17T22:09:16.243Z,0.46
2022-12-17T22:12:10.610Z,0.42
2022-12-17T22:14:37.436Z,0.40
2022-12-17T22:17:04.190Z,0.38
2022-12-17T22:19:30.928Z,0.36
2022-12-17T22:21:58.093Z,0.34
2022-12-17T22:24:25.683Z,0.24
2022-12-17T22:27:00.158Z,0.25
2022-12-17T22:29:46.626Z,0.26
2022-12-17T22:32:32.545Z,0.23
2022-12-17T22:35:29.893Z,0.23
2022-12-17T22:42:31.689Z,0.17
2022-12-17T22:44:45.006Z,0.17
2022-12-17T22:44:48.657Z,0.22
2022-12-17T22:46:16.765Z,0.16
2022-12-17T22:48:43.591Z,0.16
2022-12-17T22:51:11.421Z,0.11
2022-12-17T22:53:42.731Z,0.04
2022-12-17T22:56:19.263Z,0.06
2022-12-17T22:58:57.531Z,0.10
2022-12-17T23:01:24.377Z,0.07
2022-12-17T23:03:55.805Z,0.02
2022-12-17T23:06:22.898Z,0.07
2022-12-17T23:08:49.681Z,0.08
2022-12-17T23:11:19.500Z,0.08
2022-12-17T23:13:46.307Z,0.10
2022-12-17T23:16:13.973Z,0.07
2022-12-17T23:18:44.715Z,0.06
2022-12-17T23:21:13.286Z,-0.01
2022-12-17T23:23:40.620Z,-0.06
2022-12-17T23:26:14.757Z,-0.10
2022-12-17T23:28:42.131Z,-0.10
2022-12-17T23:31:17.816Z,-0.15
2022-12-17T23:33:45.344Z,-0.12
2022-12-17T23:36:14.953Z,-0.14
2022-12-17T23:38:42.492Z,-0.14
2022-12-17T23:41:12.282Z,-0.18
2022-12-17T23:43:40.004Z,-0.19
2022-12-17T23:46:07.783Z,-0.14
2022-12-17T23:48:42.049Z,-0.16
2022-12-17T23:51:13.466Z,-0.14
2022-12-17T23:53:40.634Z,-0.17
2022-12-17T23:56:13.997Z,-0.18
2022-12-17T23:58:42.591Z,-0.18
